createdAt,value
2022-08-03T00:00:29.041Z,89.52
2022-08-03T00:05:48.367Z,89.08
2022-08-03T00:10:55.866Z,89.1
2022-08-03T00:16:03.412Z,88.8
2022-08-03T00:21:10.889Z,88.58001
2022-08-03T00:26:18.460Z,89.25
2022-08-03T00:31:25.902Z,89.8
2022-08-03T00:36:32.219Z,89.76001
2022-08-03T00:41:41.207Z,89.36
2022-08-03T00:46:48.321Z,89.14001
2022-08-03T00:51:55.762Z,89.44
2022-08-03T00:57:02.373Z,90.0
2022-08-03T01:02:10.292Z,90.1
2022-08-03T01:07:17.363Z,90.07
2022-08-03T01:12:25.428Z,90.11001
2022-08-03T01:17:32.447Z,90.58001
2022-08-03T01:22:40.216Z,91.21
2022-08-03T01:27:47.984Z,91.24
2022-08-03T01:32:54.897Z,91.03
2022-08-03T01:38:02.461Z,90.82
2022-08-03T01:43:11.354Z,91.18
2022-08-03T01:48:19.659Z,91.35
2022-08-03T01:53:28.274Z,91.49
2022-08-03T01:58:35.134Z,91.76001
2022-08-03T02:03:42.906Z,91.82
2022-08-03T02:08:50.135Z,91.99
2022-08-03T02:13:56.727Z,92.0
2022-08-03T02:19:04.532Z,92.09
2022-08-03T02:24:11.730Z,92.08
2022-08-03T02:29:19.595Z,92.04
2022-08-03T02:34:27.042Z,92.1
2022-08-03T02:39:34.823Z,92.13
2022-08-03T02:44:41.843Z,92.35
2022-08-03T02:49:48.356Z,92.33001
2022-08-03T02:54:56.212Z,92.45
2022-08-03T03:00:04.052Z,92.64
2022-08-03T03:05:11.274Z,92.73001
2022-08-03T03:10:18.403Z,92.89001
2022-08-03T03:15:31.407Z,92.69
2022-08-03T03:20:38.359Z,92.54001
2022-08-03T03:25:45.908Z,92.6
2022-08-03T03:30:53.713Z,92.81
2022-08-03T03:36:01.408Z,92.94001
2022-08-03T03:41:08.061Z,92.92
2022-08-03T03:46:16.009Z,93.02
2022-08-03T03:51:23.941Z,93.31
2022-08-03T03:56:30.967Z,93.14
2022-08-03T04:01:38.798Z,93.12
2022-08-03T04:06:51.091Z,93.86001
2022-08-03T04:11:59.193Z,93.66
2022-08-03T04:17:07.279Z,92.87001
2022-08-03T04:22:15.211Z,91.92
2022-08-03T04:27:23.910Z,89.98
2022-08-03T04:32:31.925Z,87.04
2022-08-03T04:37:40.142Z,85.4
2022-08-03T04:42:47.249Z,83.8
2022-08-03T04:47:54.877Z,82.64
2022-08-03T04:53:01.646Z,81.17
2022-08-03T04:58:11.275Z,79.94
2022-08-03T05:03:18.607Z,78.81
2022-08-03T05:08:25.381Z,77.97
2022-08-03T05:13:33.013Z,77.58
2022-08-03T05:18:39.600Z,79.31
2022-08-03T05:23:46.771Z,77.98
2022-08-03T05:28:55.254Z,76.0
2022-08-03T05:35:34.279Z,76.52
2022-08-03T05:40:40.661Z,76.68
2022-08-03T05:45:49.084Z,75.54
2022-08-03T05:50:56.247Z,74.1
2022-08-03T05:56:03.459Z,73.2
2022-08-03T06:01:11.574Z,73.26
2022-08-03T06:06:19.095Z,73.0
2022-08-03T06:11:26.305Z,72.56
2022-08-03T06:16:34.139Z,72.16001
2022-08-03T06:21:41.366Z,71.72
2022-08-03T06:26:49.645Z,71.95
2022-08-03T06:31:57.304Z,69.22
2022-08-03T06:37:05.336Z,69.56
2022-08-03T06:42:13.410Z,69.8
2022-08-03T06:47:21.732Z,69.84
2022-08-03T06:52:28.998Z,69.24
2022-08-03T06:57:36.791Z,68.34
2022-08-03T07:02:44.955Z,68.52
2022-08-03T07:07:52.734Z,69.78
2022-08-03T07:13:00.873Z,68.48001
2022-08-03T07:18:08.853Z,67.52
2022-08-03T07:23:16.721Z,66.8
2022-08-03T07:28:25.715Z,66.96
2022-08-03T07:34:13.389Z,62.0
2022-08-03T07:39:19.915Z,56.22
2022-08-03T07:44:28.351Z,51.99
2022-08-03T07:49:35.583Z,81.18
2022-08-03T07:54:44.564Z,51.93
2022-08-03T07:59:54.253Z,46.23
2022-08-03T08:05:02.879Z,42.88
2022-08-03T08:10:11.282Z,41.34
2022-08-03T08:15:18.614Z,39.76
2022-08-03T08:20:25.873Z,39.0
2022-08-03T08:25:34.073Z,36.18
2022-08-03T08:30:41.955Z,36.84
2022-08-03T08:35:51.118Z,36.08
2022-08-03T08:40:58.438Z,35.68
2022-08-03T08:46:05.930Z,36.42
2022-08-03T08:51:13.847Z,36.72
2022-08-03T08:56:22.160Z,36.25
2022-08-03T09:01:29.837Z,36.79
2022-08-03T09:06:38.308Z,35.89
2022-08-03T09:11:45.707Z,35.53
2022-08-03T09:16:52.051Z,35.5
2022-08-03T09:21:59.447Z,34.72
2022-08-03T09:27:06.969Z,34.32
2022-08-03T09:32:23.125Z,33.27
2022-08-03T09:37:31.071Z,33.6
2022-08-03T09:42:37.731Z,33.12
2022-08-03T09:47:44.842Z,32.76
2022-08-03T09:52:56.333Z,33.04
2022-08-03T09:58:03.768Z,32.22
2022-08-03T10:03:11.609Z,32.0
2022-08-03T10:08:19.839Z,31.54
2022-08-03T10:13:27.502Z,30.62
2022-08-03T10:18:34.664Z,29.59
2022-08-03T10:23:43.051Z,28.25
2022-08-03T10:28:51.005Z,28.43
2022-08-03T10:33:58.620Z,27.56
2022-08-03T10:39:05.919Z,26.99
2022-08-03T10:44:13.018Z,26.02
2022-08-03T10:49:20.244Z,26.71
2022-08-03T10:54:28.013Z,27.17
2022-08-03T10:59:35.276Z,25.67
2022-08-03T11:04:43.609Z,26.75
2022-08-03T11:09:51.578Z,25.8
2022-08-03T11:14:58.970Z,26.82
2022-08-03T11:20:07.110Z,26.31
2022-08-03T11:25:13.820Z,25.47
2022-08-03T11:30:21.658Z,25.26
2022-08-03T11:35:28.864Z,25.17
2022-08-03T11:40:36.031Z,24.58
2022-08-03T11:45:42.612Z,24.34
2022-08-03T11:50:51.412Z,24.04
2022-08-03T11:55:59.104Z,24.18
2022-08-03T12:01:06.552Z,24.68
2022-08-03T12:06:13.923Z,25.98
2022-08-03T12:11:20.538Z,27.52
2022-08-03T12:16:27.960Z,28.12
2022-08-03T12:21:36.720Z,29.79
2022-08-03T12:27:34.674Z,30.97
2022-08-03T12:32:41.206Z,32.34
2022-08-03T12:37:49.656Z,32.22
2022-08-03T12:42:56.858Z,33.4
2022-08-03T12:48:05.046Z,33.76
2022-08-03T12:53:12.540Z,34.08
2022-08-03T12:58:21.058Z,33.72
2022-08-03T13:03:29.698Z,33.44
2022-08-03T13:08:38.165Z,33.4
2022-08-03T13:13:45.816Z,32.15
2022-08-03T13:18:54.499Z,32.78
2022-08-03T13:24:02.376Z,31.99
2022-08-03T13:29:08.692Z,32.35
2022-08-03T13:34:15.888Z,31.58
2022-08-03T13:39:24.334Z,31.24
2022-08-03T13:44:31.941Z,31.88
2022-08-03T13:49:39.447Z,32.4
2022-08-03T13:54:46.559Z,32.43
2022-08-03T13:59:53.852Z,31.39
2022-08-03T14:05:02.082Z,32.29
2022-08-03T14:10:10.344Z,32.62
2022-08-03T14:15:18.307Z,31.4
2022-08-03T14:20:26.985Z,30.7
2022-08-03T14:25:34.694Z,31.23
2022-08-03T14:30:41.498Z,31.54
2022-08-03T14:35:48.967Z,30.1
2022-08-03T14:40:56.965Z,30.09
2022-08-03T14:46:04.883Z,29.84
2022-08-03T14:51:13.090Z,29.99
2022-08-03T14:56:21.214Z,29.8
2022-08-03T15:01:44.422Z,29.78
2022-08-03T15:06:52.363Z,28.52
2022-08-03T15:12:00.206Z,28.87
2022-08-03T15:17:14.705Z,28.43
2022-08-03T15:22:23.447Z,28.87
2022-08-03T15:27:30.782Z,29.22
2022-08-03T15:32:37.415Z,29.1
2022-08-03T15:38:01.141Z,28.78
2022-08-03T15:43:08.845Z,29.19
2022-08-03T15:48:16.887Z,29.66
2022-08-03T15:53:24.380Z,29.83
2022-08-03T15:58:30.654Z,29.88
2022-08-03T16:03:38.007Z,30.15
2022-08-03T16:08:45.060Z,30.76
2022-08-03T16:13:53.213Z,31.25
2022-08-03T16:19:00.088Z,31.47
2022-08-03T16:24:08.177Z,31.72
2022-08-03T16:29:16.245Z,33.3
2022-08-03T16:34:22.933Z,34.32
2022-08-03T16:39:31.172Z,34.9
2022-08-03T16:44:39.855Z,35.24
2022-08-03T16:49:47.470Z,36.25
2022-08-03T16:54:53.662Z,36.79
2022-08-03T17:00:00.215Z,36.83
2022-08-03T17:05:07.413Z,38.0
2022-08-03T17:10:14.872Z,38.1
2022-08-03T17:15:23.435Z,38.76
2022-08-03T17:20:30.962Z,39.72
2022-08-03T17:25:37.492Z,41.4
2022-08-03T17:30:45.965Z,42.08
2022-08-03T17:35:53.822Z,43.03
2022-08-03T17:41:01.719Z,43.96
2022-08-03T17:46:09.089Z,44.92
2022-08-03T17:51:16.795Z,45.29
2022-08-03T17:56:23.896Z,45.78
2022-08-03T18:01:31.876Z,46.12
2022-08-03T18:06:39.446Z,46.66
2022-08-03T18:11:46.857Z,47.68
2022-08-03T18:16:54.220Z,47.77
2022-08-03T18:22:01.477Z,48.44
2022-08-03T18:27:10.043Z,48.88
2022-08-03T18:32:17.488Z,49.3
2022-08-03T18:37:24.124Z,49.7
2022-08-03T18:42:31.691Z,50.83
2022-08-03T18:47:37.826Z,52.23
2022-08-03T18:52:46.002Z,53.35
2022-08-03T18:57:53.536Z,54.38
2022-08-03T19:03:01.275Z,55.08
2022-08-03T19:08:07.933Z,57.01
2022-08-03T19:13:15.121Z,58.03
2022-08-03T19:18:22.996Z,58.36
2022-08-03T19:23:29.989Z,58.79
2022-08-03T19:28:37.688Z,59.41
2022-08-03T19:33:45.181Z,59.68
2022-08-03T19:38:52.320Z,60.93
2022-08-03T19:43:59.545Z,61.19
2022-08-03T19:49:06.778Z,61.43
2022-08-03T19:54:14.266Z,61.35
2022-08-03T19:59:22.969Z,62.44
2022-08-03T20:04:30.163Z,63.1
2022-08-03T20:09:37.510Z,64.14
2022-08-03T20:14:46.745Z,65.1
2022-08-03T20:19:54.979Z,65.36
2022-08-03T20:25:03.282Z,65.58
2022-08-03T20:30:11.857Z,66.4
2022-08-03T20:35:20.974Z,66.6
2022-08-03T20:40:29.018Z,67.28
2022-08-03T20:45:36.478Z,67.76
2022-08-03T20:50:44.483Z,68.05
2022-08-03T20:55:52.282Z,68.84
2022-08-03T21:01:00.082Z,69.53
2022-08-03T21:06:07.115Z,69.92
2022-08-03T21:11:15.675Z,70.24
2022-08-03T21:16:22.633Z,70.44
2022-08-03T21:21:30.042Z,70.04
2022-08-03T21:26:37.598Z,71.02
2022-08-03T21:31:44.647Z,71.25
2022-08-03T21:36:52.086Z,71.6
2022-08-03T21:42:00.411Z,71.30001
2022-08-03T21:47:10.506Z,72.28
2022-08-03T21:52:18.730Z,72.55001
2022-08-03T21:57:27.147Z,73.01
2022-08-03T22:02:35.462Z,73.61
2022-08-03T22:07:41.657Z,74.07
2022-08-03T22:12:49.463Z,74.1
2022-08-03T22:17:56.697Z,74.08
2022-08-03T22:23:04.412Z,74.27
2022-08-03T22:28:12.487Z,73.98
2022-08-03T22:33:20.425Z,74.56
2022-08-03T22:39:05.816Z,74.78
2022-08-03T22:44:13.492Z,75.41
2022-08-03T22:49:22.437Z,75.67
2022-08-03T22:54:31.282Z,75.92
2022-08-03T22:59:39.099Z,76.02
2022-08-03T23:04:46.436Z,76.17
2022-08-03T23:09:53.957Z,76.75
2022-08-03T23:15:00.978Z,76.79
2022-08-03T23:20:08.744Z,76.73
2022-08-03T23:25:15.102Z,77.62001
2022-08-03T23:30:22.936Z,77.65
2022-08-03T23:35:31.843Z,77.96
2022-08-03T23:40:38.615Z,78.12
2022-08-03T23:45:46.259Z,78.39
2022-08-03T23:50:54.240Z,78.86
2022-08-03T23:56:02.005Z,79.12
